Terminal Aerodrome Forecast
Issued by NWS

Home | Current Version | Previous Version | Text Only | Print | Product List | Glossary Off
Versions: 1 2 3 4 5 6 7 8 9 10 11 12 13 14 15 16 17 18 19 20 21 22 23 24 25 26 27 28 29 30 31 32 33 34 35
000 FTUS41 KBOX 011728 TAFFMH TAF KFMH 011728Z 0118/0218 29009KT P6SM SCT140 FM012200 30006KT P6SM BKN110 FM020300 36006KT P6SM OVC070 FM020700 04006KT P6SM OVC050 FM020800 07006KT 1SM -SN OVC050 FM021100 10012G20KT 1SM -SN OVC015 FM021200 10014G25KT 1/4SM +SN OVC015 FM021600 13013G23KT 3SM FZRA OVC003=

USA.gov is the U.S. government's official web portal to all federal, state and local government web resources and services.